Time;durP1;ratioP1;P1;durP2;ratioP2;P2;SDS_P1;SDS_P2;PMS_P1;PMS_P2;Temp;Humidity;BMP_temperature;BMP_pressure;BME280_temperature;BME280_humidity;BME280_pressure;Samples;Min_cycle;Max_cycle;Signal;HPM_P1;HPM_P2
2022/05/12 00:00:44;;;;;;;5.20;3.95;;;;;;;19.82;49.90;93355.66;4996060;28;20560;-89
2022/05/12 00:03:09;;;;;;;5.38;4.10;;;;;;;19.85;49.69;93356.63;4978804;28;20033;-86
2022/05/12 00:05:35;;;;;;;5.50;4.32;;;;;;;19.83;49.59;93354.41;5012425;28;20392;-83
2022/05/12 00:08:00;;;;;;;7.85;4.68;;;;;;;19.83;49.93;93357.16;5011481;28;20531;-83
2022/05/12 00:10:26;;;;;;;6.80;4.30;;;;;;;19.82;49.56;93350.19;5001819;28;20060;-83
2022/05/12 00:12:52;;;;;;;4.88;4.32;;;;;;;19.82;49.66;93347.44;5009511;28;20467;-84
2022/05/12 00:15:20;;;;;;;4.68;4.15;;;;;;;19.84;49.79;93353.16;5031049;28;20443;-85
2022/05/12 00:17:45;;;;;;;7.38;3.90;;;;;;;19.82;49.86;93352.94;5030861;28;20033;-84
2022/05/12 00:20:12;;;;;;;5.38;4.40;;;;;;;19.82;49.87;93355.66;5048753;28;20068;-84
2022/05/12 00:22:38;;;;;;;5.53;4.25;;;;;;;19.80;49.32;93352.69;5014062;28;20080;-83
2022/05/12 00:25:04;;;;;;;4.78;3.90;;;;;;;19.81;50.14;93358.94;4978616;28;20029;-84
2022/05/12 00:27:29;;;;;;;5.18;4.03;;;;;;;19.81;49.66;93354.19;5011308;28;20725;-84
2022/05/12 00:29:55;;;;;;;4.57;3.55;;;;;;;19.80;49.94;93366.41;4994798;28;20029;-83
2022/05/12 00:32:20;;;;;;;4.03;3.63;;;;;;;19.79;49.66;93364.94;5011094;28;20030;-83
2022/05/12 00:34:45;;;;;;;5.72;4.10;;;;;;;19.78;49.69;93359.97;4994535;28;20030;-83
2022/05/12 00:37:11;;;;;;;5.10;4.05;;;;;;;19.80;49.84;93352.69;4994409;28;20052;-84
2022/05/12 00:39:36;;;;;;;6.32;4.47;;;;;;;19.78;49.47;93357.97;5011264;28;20455;-83
2022/05/12 00:42:02;;;;;;;5.65;4.15;;;;;;;19.79;49.71;93356.72;5010922;28;20478;-83
2022/05/12 00:44:27;;;;;;;4.35;3.90;;;;;;;19.78;49.52;93355.22;4994308;28;20029;-86
2022/05/12 00:46:53;;;;;;;5.05;4.10;;;;;;;19.78;49.80;93352.47;5028365;28;20034;-83
2022/05/12 00:49:27;;;;;;;3.95;3.35;;;;;;;19.79;49.69;93356.72;4993799;28;20041;-83
2022/05/12 00:51:58;;;;;;;5.50;3.72;;;;;;;19.79;49.87;93356.72;5010898;28;20113;-84
2022/05/12 00:54:31;;;;;;;4.25;3.80;;;;;;;19.78;49.66;93355.22;4994477;28;20391;-83
2022/05/12 00:56:56;;;;;;;4.53;3.63;;;;;;;19.80;49.39;93363.69;4994391;28;20057;-84
2022/05/12 00:59:27;;;;;;;4.38;3.70;;;;;;;19.79;49.75;93361.44;4993494;28;20049;-83
2022/05/12 01:01:52;;;;;;;6.78;3.72;;;;;;;19.77;49.95;93359.22;4994209;28;20140;-84
2022/05/12 01:04:19;;;;;;;4.30;3.72;;;;;;;19.79;49.55;93367.69;4993846;28;20121;-84
2022/05/12 01:06:45;;;;;;;6.15;3.60;;;;;;;19.80;49.79;93371.16;4994699;28;20033;-83
2022/05/12 01:09:10;;;;;;;4.40;3.70;;;;;;;19.77;49.77;93366.72;4993171;28;20046;-83
2022/05/12 01:11:35;;;;;;;4.45;3.63;;;;;;;19.79;49.70;93375.16;4981881;28;20044;-83
2022/05/12 01:14:02;;;;;;;5.10;3.58;;;;;;;19.78;49.76;93366.19;4997804;28;20090;-83
2022/05/12 01:16:32;;;;;;;5.13;3.90;;;;;;;19.77;49.85;93369.47;5010561;28;20045;-83
2022/05/12 01:18:58;;;;;;;4.70;3.40;;;;;;;19.76;49.77;93368.72;5010638;28;20100;-84
2022/05/12 01:21:24;;;;;;;4.32;3.50;;;;;;;19.77;49.67;93369.47;5008247;28;20037;-83
2022/05/12 01:23:49;;;;;;;4.38;3.67;;;;;;;19.77;49.72;93372.19;4994334;28;20041;-85
2022/05/12 01:26:15;;;;;;;3.83;3.15;;;;;;;19.76;49.66;93373.47;4977521;28;20095;-83
2022/05/12 01:28:40;;;;;;;4.05;3.40;;;;;;;19.74;49.74;93373.97;4977383;28;20060;-83
2022/05/12 01:31:06;;;;;;;4.15;3.30;;;;;;;19.76;49.85;93370.72;4993044;28;20159;-83
2022/05/12 01:33:32;;;;;;;3.88;3.25;;;;;;;19.75;49.69;93363.75;4977321;28;20438;-84
2022/05/12 01:35:57;;;;;;;3.80;3.15;;;;;;;19.76;49.63;93370.72;4993738;28;20046;-83
2022/05/12 01:38:22;;;;;;;4.63;3.50;;;;;;;19.74;49.61;93375.97;4993250;28;20477;-83
2022/05/12 01:40:48;;;;;;;4.07;3.33;;;;;;;19.74;49.78;93373.97;4993317;28;20420;-87
2022/05/12 01:43:14;;;;;;;5.22;3.92;;;;;;;19.75;49.46;93378.22;5000817;28;20040;-84
2022/05/12 01:45:39;;;;;;;5.47;3.65;;;;;;;19.75;49.78;93383.69;5008788;28;20040;-87
2022/05/12 01:48:06;;;;;;;3.80;3.22;;;;;;;19.75;49.68;93380.22;4976726;28;20037;-84
2022/05/12 01:50:31;;;;;;;3.60;3.00;;;;;;;19.72;49.82;93379.25;4993212;28;20033;-83
2022/05/12 01:52:56;;;;;;;4.13;3.50;;;;;;;19.74;49.73;93375.97;4993655;28;20040;-83
2022/05/12 01:55:26;;;;;;;3.63;3.10;;;;;;;19.73;49.55;93383.47;5027093;28;20045;-84
2022/05/12 01:57:52;;;;;;;4.25;3.53;;;;;;;19.72;49.45;93370.28;4977972;28;20121;-83
2022/05/12 02:00:21;;;;;;;4.63;3.50;;;;;;;19.73;49.89;93383.47;4992250;28;20091;-84
2022/05/12 02:02:47;;;;;;;4.68;3.75;;;;;;;19.73;49.66;93375.25;4993255;28;20029;-83
2022/05/12 02:05:12;;;;;;;3.42;2.75;;;;;;;19.72;49.66;93384.72;4993258;28;20535;-84
2022/05/12 02:07:39;;;;;;;3.05;2.75;;;;;;;19.71;49.39;93383.25;4976938;28;20048;-83
2022/05/12 02:10:06;;;;;;;3.58;3.20;;;;;;;19.73;49.54;93386.22;4975544;28;20086;-83
2022/05/12 02:12:31;;;;;;;3.72;3.25;;;;;;;19.72;49.62;93381.25;4988179;28;20041;-83
2022/05/12 02:14:56;;;;;;;4.85;3.70;;;;;;;19.70;49.65;93386.53;5012870;28;20495;-84
2022/05/12 02:17:22;;;;;;;3.45;3.08;;;;;;;19.70;49.92;93381.03;5028708;28;20560;-84
2022/05/12 02:19:47;;;;;;;3.58;2.65;;;;;;;19.70;49.49;93392.03;5012830;28;20040;-87
2022/05/12 02:22:13;;;;;;;3.90;2.97;;;;;;;19.69;49.65;93394.03;5029047;28;20528;-84
2022/05/12 02:24:38;;;;;;;3.85;2.95;;;;;;;19.71;49.86;93385.25;4990040;28;20038;-84
2022/05/12 02:27:04;;;;;;;3.50;3.15;;;;;;;19.72;49.48;93395.69;5005595;28;20041;-84
2022/05/12 02:29:29;;;;;;;3.80;3.13;;;;;;;19.70;49.52;93392.03;4988982;28;20128;-84
2022/05/12 02:31:55;;;;;;;3.15;2.70;;;;;;;19.69;49.71;93387.78;5005147;28;20038;-83
2022/05/12 02:34:20;;;;;;;3.75;3.25;;;;;;;19.67;49.54;93399.28;4995435;28;20460;-83
2022/05/12 02:37:00;;;;;;;4.50;3.08;;;;;;;19.72;49.51;93397.69;4976633;28;20034;-83
2022/05/12 02:39:29;;;;;;;4.05;3.33;;;;;;;19.69;49.60;93385.78;5008473;28;20532;-83
2022/05/12 02:41:54;;;;;;;3.75;2.85;;;;;;;19.70;49.64;93389.28;5008827;28;20587;-83
2022/05/12 02:44:19;;;;;;;4.82;3.65;;;;;;;19.68;49.50;93405.50;5024524;28;20040;-83
2022/05/12 02:46:45;;;;;;;3.55;3.00;;;;;;;19.70;49.57;93408.47;4985332;28;20045;-83
2022/05/12 02:49:10;;;;;;;3.47;2.72;;;;;;;19.68;49.66;93400.75;4992236;28;20042;-83
2022/05/12 02:51:36;;;;;;;3.97;3.08;;;;;;;19.68;49.13;93402.75;4991924;28;20041;-83
2022/05/12 02:54:01;;;;;;;3.75;3.15;;;;;;;19.68;49.45;93405.50;4992837;28;20025;-84
2022/05/12 02:56:26;;;;;;;3.28;2.97;;;;;;;19.67;49.40;93406.75;5024778;28;20060;-83
2022/05/12 02:58:52;;;;;;;5.10;2.88;;;;;;;19.69;49.68;93409.72;5008324;28;20080;-84
2022/05/12 03:01:17;;;;;;;3.72;3.08;;;;;;;19.66;49.52;93399.78;4991205;28;20038;-83
2022/05/12 03:03:43;;;;;;;3.22;2.63;;;;;;;19.67;49.58;93404.75;4992799;28;20080;-83
2022/05/12 03:06:08;;;;;;;3.30;2.80;;;;;;;19.68;49.45;93398.03;4975746;28;20042;-84
2022/05/12 03:08:35;;;;;;;4.10;2.92;;;;;;;19.67;49.71;93399.28;4976085;28;20049;-84
2022/05/12 03:11:02;;;;;;;3.42;3.13;;;;;;;19.66;49.44;93403.28;4988308;28;20034;-85
2022/05/12 03:13:27;;;;;;;3.85;3.20;;;;;;;19.66;49.19;93413.50;5010973;28;20556;-83
2022/05/12 03:15:53;;;;;;;3.40;3.10;;;;;;;19.67;49.70;93404.75;4995639;28;20037;-84
2022/05/12 03:18:18;;;;;;;3.78;2.90;;;;;;;19.66;49.17;93410.75;5012157;28;20124;-83
2022/05/12 03:20:45;;;;;;;3.60;2.70;;;;;;;19.65;49.51;93409.28;5028136;28;20048;-83
2022/05/12 03:23:10;;;;;;;3.20;2.60;;;;;;;19.67;49.50;93409.50;4991062;28;20036;-83
2022/05/12 03:25:36;;;;;;;3.15;2.78;;;;;;;19.65;49.16;93409.28;5026193;28;20044;-84
2022/05/12 03:28:01;;;;;;;3.45;2.60;;;;;;;19.65;49.27;93410.03;4992670;28;20095;-83
2022/05/12 03:30:27;;;;;;;3.42;3.05;;;;;;;19.64;49.17;93413.28;5007803;28;20497;-84
2022/05/12 03:32:52;;;;;;;3.40;2.65;;;;;;;19.64;49.35;93416.03;4975838;28;20439;-83
2022/05/12 03:35:18;;;;;;;3.30;2.47;;;;;;;19.66;49.46;93421.75;5007843;28;20033;-83
2022/05/12 03:37:44;;;;;;;5.00;2.60;;;;;;;19.61;49.73;93425.28;5009015;28;20120;-83
2022/05/12 03:40:11;;;;;;;3.92;3.22;;;;;;;19.67;49.71;93426.72;4975151;28;20053;-83
2022/05/12 03:42:37;;;;;;;6.47;2.95;;;;;;;19.63;49.55;93423.50;4993643;28;20048;-82
2022/05/12 03:45:02;;;;;;;3.90;3.10;;;;;;;19.68;49.31;93419.22;5012497;28;20041;-85
2022/05/12 03:47:33;;;;;;;4.47;3.40;;;;;;;19.66;49.45;93424.47;4994424;28;20064;-86
2022/05/12 03:50:02;;;;;;;6.75;3.55;;;;;;;19.68;49.37;93427.44;4979772;28;20066;-85
2022/05/12 03:52:31;;;;;;;9.82;3.28;;;;;;;19.68;49.12;93422.69;4979844;28;20045;-84
2022/05/12 03:54:56;;;;;;;7.05;5.32;;;;;;;19.72;49.05;93422.38;5012306;28;20396;-84
2022/05/12 03:57:22;;;;;;;4.80;3.30;;;;;;;19.72;48.82;93419.63;5011693;28;20038;-83
2022/05/12 03:59:49;;;;;;;3.92;3.50;;;;;;;19.72;48.86;93425.13;4991111;28;20038;-83
2022/05/12 04:02:15;;;;;;;11.50;3.38;;;;;;;19.67;49.24;93425.97;5002940;28;20377;-85
2022/05/12 04:04:42;;;;;;;9.43;4.20;;;;;;;19.63;48.88;93428.25;4990528;28;20034;-84
2022/05/12 04:07:08;;;;;;;13.10;4.72;;;;;;;19.62;48.46;93433.00;4988250;28;20042;-82
2022/05/12 04:09:33;;;;;;;23.17;5.78;;;;;;;19.59;48.33;93436.03;4974866;28;20038;-83
2022/05/12 04:11:59;;;;;;;38.42;18.35;;;;;;;19.56;48.01;93439.81;5005935;28;20053;-83
2022/05/12 04:14:24;;;;;;;12.43;4.90;;;;;;;19.55;47.52;93435.56;4989661;28;20048;-82
2022/05/12 04:16:50;;;;;;;11.40;5.57;;;;;;;19.52;47.19;93438.09;4986931;28;20076;-84
2022/05/12 04:19:15;;;;;;;12.77;6.28;;;;;;;19.49;47.29;93441.84;4986185;28;20053;-83
2022/05/12 04:21:41;;;;;;;19.75;7.20;;;;;;;19.50;46.75;93446.09;5006268;28;20034;-84
2022/05/12 04:24:07;;;;;;;10.95;6.35;;;;;;;19.50;46.56;93448.09;4988454;28;20066;-85
2022/05/12 04:26:34;;;;;;;12.07;6.90;;;;;;;19.45;46.52;93451.63;5005136;28;20548;-84
2022/05/12 04:28:59;;;;;;;46.95;32.75;;;;;;;19.51;46.60;93453.06;4991313;28;20038;-84
2022/05/12 04:31:25;;;;;;;13.00;7.45;;;;;;;19.49;46.26;93452.06;4991515;28;20033;-84
2022/05/12 04:36:36;;;;;;;22.95;15.35;;;;;;;19.49;46.18;93449.31;4994278;28;20077;-84
2022/05/12 04:39:03;;;;;;;17.92;9.05;;;;;;;19.43;46.55;93451.41;5006896;28;20109;-84
2022/05/12 04:41:28;;;;;;;45.38;26.08;;;;;;;19.43;46.86;93459.63;4985704;28;20038;-88
2022/05/12 04:43:54;;;;;;;31.30;13.85;;;;;;;19.47;46.56;93460.09;4972815;28;20042;-88
2022/05/12 04:46:20;;;;;;;65.88;35.88;;;;;;;19.53;46.41;93466.25;4989798;28;20044;-84
2022/05/12 04:48:45;;;;;;;48.22;10.10;;;;;;;19.52;46.45;93471.00;4973543;28;20121;-82
2022/05/12 04:51:11;;;;;;;28.65;9.77;;;;;;;19.50;46.50;93472.75;4989246;28;20033;-83
2022/05/12 04:53:37;;;;;;;21.17;9.60;;;;;;;19.46;46.61;93469.56;4982657;28;20049;-86
2022/05/12 04:56:02;;;;;;;28.67;8.40;;;;;;;19.52;46.39;93473.72;4974516;28;20030;-86
2022/05/12 04:58:28;;;;;;;79.45;16.52;;;;;;;19.46;46.63;93477.78;4985366;28;20034;-83
2022/05/12 05:00:53;;;;;;;282.38;54.65;;;;;;;19.45;46.97;93474.31;4994842;28;20099;-83
2022/05/12 05:03:19;;;;;;;394.10;90.38;;;;;;;19.46;46.75;93475.03;5026088;28;20038;-83
2022/05/12 05:05:45;;;;;;;256.73;68.00;;;;;;;19.44;46.81;93467.34;4994851;28;20083;-83
2022/05/12 05:08:14;;;;;;;183.68;47.67;;;;;;;19.47;46.97;93476.53;5007853;28;20043;-87
2022/05/12 05:10:40;;;;;;;;;;;;;;;19.48;46.87;93472.53;4976789;28;20041;-82
2022/05/12 05:13:06;;;;;;;106.73;32.43;;;;;;;19.46;46.73;93477.78;5008089;28;19925;-88
2022/05/12 05:15:31;;;;;;;116.28;29.50;;;;;;;19.44;46.89;93475.56;4994062;28;20769;-87
2022/05/12 05:17:57;;;;;;;76.65;19.25;;;;;;;19.40;46.83;93480.59;5008904;28;20121;-84
2022/05/12 05:20:25;;;;;;;85.35;25.70;;;;;;;19.46;46.47;93483.28;4993058;28;20030;-82
2022/05/12 05:22:50;;;;;;;84.45;24.33;;;;;;;19.41;46.65;93479.34;4992683;28;20041;-89
2022/05/12 05:25:16;;;;;;;75.50;22.42;;;;;;;19.44;46.76;93477.56;4992977;28;20030;-82
2022/05/12 05:27:42;;;;;;;68.18;21.67;;;;;;;19.48;46.51;93481.50;5007837;28;20073;-83
2022/05/12 05:30:10;;;;;;;104.32;30.92;;;;;;;19.44;46.77;93478.31;5028613;28;20527;-82
2022/05/12 05:32:36;;;;;;;89.97;25.58;;;;;;;19.44;46.68;93496.75;4976245;28;20081;-86
2022/05/12 05:35:03;;;;;;;78.28;25.50;;;;;;;19.45;46.71;93492.75;5011986;28;20037;-84
2022/05/12 05:37:28;;;;;;;76.50;27.00;;;;;;;19.46;46.59;93483.28;4992771;28;20056;-87
2022/05/12 05:39:54;;;;;;;59.33;24.55;;;;;;;19.47;46.78;93490.25;4996016;28;20041;-86
2022/05/12 05:42:20;;;;;;;70.20;26.15;;;;;;;19.45;46.81;93500.97;4989861;28;20509;-84
2022/05/12 05:44:45;;;;;;;74.10;25.38;;;;;;;19.44;47.21;93502.97;4999417;28;20034;-82
2022/05/12 05:47:11;;;;;;;109.38;30.67;;;;;;;19.46;47.00;93502.47;4989986;28;20048;-86
2022/05/12 05:49:37;;;;;;;78.72;27.77;;;;;;;19.43;46.87;93508.97;5009997;28;20045;-82
2022/05/12 05:54:47;;;;;;;74.45;29.60;;;;;;;19.45;47.04;93509.22;5029442;28;20121;-83
2022/05/12 05:57:12;;;;;;;104.15;35.58;;;;;;;19.46;46.88;93511.44;4984230;28;20034;-85
2022/05/12 05:59:38;;;;;;;83.30;32.97;;;;;;;19.48;46.99;93513.66;4969305;28;20043;-87
2022/05/12 06:02:04;;;;;;;94.32;32.95;;;;;;;19.43;46.94;93522.69;5001854;28;20065;-85
2022/05/12 06:04:29;;;;;;;142.55;37.60;;;;;;;19.50;46.95;93525.59;5016343;28;20056;-83
2022/05/12 06:06:55;;;;;;;89.28;32.45;;;;;;;19.53;46.88;93532.06;5005020;28;20734;-83
2022/05/12 06:09:21;;;;;;;54.70;27.98;;;;;;;19.53;46.70;93534.81;5005187;28;20057;-85
2022/05/12 06:11:48;;;;;;;52.10;25.77;;;;;;;19.54;46.62;93527.31;5002720;28;20046;-83
2022/05/12 06:14:13;;;;;;;69.63;30.38;;;;;;;19.58;46.90;93533.25;5002109;28;20045;-84
2022/05/12 06:16:39;;;;;;;48.97;25.67;;;;;;;19.60;46.72;93533.50;4992453;28;20103;-83
2022/05/12 06:19:05;;;;;;;61.15;29.55;;;;;;;19.60;46.90;93541.72;5002289;28;20046;-83
2022/05/12 06:21:33;;;;;;;47.97;24.25;;;;;;;19.65;46.68;93547.16;5008210;28;20045;-84
2022/05/12 06:23:59;;;;;;;50.85;24.77;;;;;;;19.61;46.56;93538.47;4985355;28;20135;-86
2022/05/12 06:26:24;;;;;;;44.05;22.50;;;;;;;19.60;46.61;93544.47;4972040;28;20448;-84
2022/05/12 06:28:50;;;;;;;41.60;20.75;;;;;;;19.62;46.57;93553.66;5001445;28;20096;-89
2022/05/12 06:31:24;;;;;;;74.32;24.33;;;;;;;19.57;46.91;93554.47;4989243;28;20034;-84
2022/05/12 06:33:50;;;;;;;51.15;19.15;;;;;;;19.59;47.07;93551.94;5003390;28;20046;-84
2022/05/12 06:36:21;;;;;;;50.58;20.20;;;;;;;19.60;47.26;93558.16;4964061;28;20649;-87
2022/05/12 06:38:47;;;;;;;54.63;28.05;;;;;;;19.64;46.98;93553.16;4967086;28;21021;-84
2022/05/12 06:41:13;;;;;;;122.57;38.40;;;;;;;19.59;47.08;93556.69;4967324;28;20046;-83
2022/05/12 06:43:45;;;;;;;84.80;31.38;;;;;;;19.62;47.10;93550.19;4978150;28;20062;-85
2022/05/12 06:46:11;;;;;;;79.45;24.33;;;;;;;19.60;47.38;93556.16;4955457;28;20507;-84
2022/05/12 06:48:37;;;;;;;68.07;25.25;;;;;;;19.61;47.02;93559.66;4964034;28;20129;-84
2022/05/12 06:51:02;;;;;;;65.05;23.35;;;;;;;19.61;47.12;93559.66;4954604;28;20102;-85
2022/05/12 06:53:28;;;;;;;57.53;24.00;;;;;;;19.65;47.06;93560.84;4948743;28;20057;-85
2022/05/12 06:55:53;;;;;;;47.45;22.27;;;;;;;19.62;47.10;93566.63;4948171;28;20552;-86
2022/05/12 06:58:19;;;;;;;51.35;22.08;;;;;;;19.68;46.99;93559.09;4967161;28;20460;-88
2022/05/12 07:00:45;;;;;;;56.10;26.13;;;;;;;19.65;46.95;93574.56;4968504;28;20046;-84
2022/05/12 07:03:12;;;;;;;51.22;23.90;;;;;;;19.68;46.98;93576.28;4967469;28;20046;-84
2022/05/12 07:05:39;;;;;;;58.78;27.20;;;;;;;19.66;47.44;93567.09;4935344;28;20132;-85
2022/05/12 07:08:05;;;;;;;58.05;25.50;;;;;;;19.72;46.88;93579.47;4972282;28;20389;-83
2022/05/12 07:10:31;;;;;;;93.78;34.63;;;;;;;19.71;47.24;93577.97;4999858;28;20065;-84
2022/05/12 07:12:57;;;;;;;99.65;34.00;;;;;;;19.77;46.99;93577.94;4981613;28;20061;-90
2022/05/12 07:15:25;;;;;;;73.03;32.20;;;;;;;19.74;47.37;93579.69;4987509;28;20130;-88
2022/05/12 07:17:51;;;;;;;82.55;33.00;;;;;;;19.76;47.35;93584.66;4978357;28;20038;-84
2022/05/12 07:28:31;;;;;;;133.85;45.17;;;;;;;19.79;47.44;93589.88;5015948;28;20766;-87
2022/05/12 07:31:02;;;;;;;100.07;40.13;;;;;;;19.77;47.40;93600.63;4990748;28;20040;-83
2022/05/12 07:33:41;;;;;;;97.05;37.72;;;;;;;19.80;47.79;93601.59;4992886;28;20665;-82
2022/05/12 07:36:10;;;;;;;93.03;38.17;;;;;;;19.80;47.82;93607.06;4997897;28;20517;-84
2022/05/12 07:38:36;;;;;;;93.90;37.20;;;;;;;19.82;47.81;93605.31;5004581;28;20058;-84
2022/05/12 07:41:01;;;;;;;99.80;38.38;;;;;;;19.84;47.79;93616.50;4991893;28;20044;-84
2022/05/12 07:43:27;;;;;;;67.10;32.55;;;;;;;19.85;47.92;93622.72;5005798;28;20034;-85
2022/05/12 07:45:53;;;;;;;78.38;36.75;;;;;;;19.85;47.79;93628.22;5008453;28;20038;-84
2022/05/12 07:48:19;;;;;;;80.65;35.55;;;;;;;19.91;47.70;93628.16;4991005;28;20041;-83
2022/05/12 07:50:45;;;;;;;91.30;39.95;;;;;;;19.88;47.76;93624.44;5010568;28;20396;-89
2022/05/12 07:53:10;;;;;;;79.80;36.58;;;;;;;19.94;47.71;93629.84;4990371;28;20066;-86
2022/05/12 07:55:36;;;;;;;94.65;48.75;;;;;;;19.95;47.52;93626.59;4991569;28;20030;-85
2022/05/12 07:58:03;;;;;;;88.60;44.45;;;;;;;19.94;47.46;93630.59;4992823;28;20049;-84
2022/05/12 08:00:30;;;;;;;85.20;42.78;;;;;;;20.00;47.48;93622.31;4984415;28;20039;-84
2022/05/12 08:02:56;;;;;;;87.88;43.35;;;;;;;20.03;47.48;93635.00;4988995;28;20038;-85
2022/05/12 08:05:22;;;;;;;113.07;50.53;;;;;;;20.04;47.60;93628.25;5008326;28;20803;-85
2022/05/12 08:07:48;;;;;;;95.15;51.08;;;;;;;20.07;47.29;93625.22;5002568;28;20045;-86
2022/05/12 08:10:14;;;;;;;92.20;46.85;;;;;;;20.05;47.55;93633.25;4987516;28;20112;-84
2022/05/12 08:12:41;;;;;;;94.78;45.85;;;;;;;20.06;47.42;93629.25;5003478;28;20075;-83
2022/05/12 08:15:08;;;;;;;98.97;47.50;;;;;;;20.07;47.66;93629.97;4989619;28;20501;-83
2022/05/12 08:17:33;;;;;;;108.00;52.03;;;;;;;20.12;47.59;93640.16;4991500;28;20157;-85
2022/05/12 08:19:59;;;;;;;122.97;61.55;;;;;;;20.11;47.49;93639.41;5011327;28;20520;-84
2022/05/12 08:22:24;;;;;;;175.32;86.45;;;;;;;20.15;47.58;93642.59;4994878;28;20084;-84
2022/05/12 08:24:51;;;;;;;188.20;102.10;;;;;;;20.16;47.38;93635.09;4997667;28;20057;-83
2022/05/12 08:27:17;;;;;;;206.60;102.63;;;;;;;20.13;47.35;93639.66;4989924;28;20096;-84
2022/05/12 08:29:43;;;;;;;211.65;101.88;;;;;;;20.16;47.43;93652.31;5005533;28;20786;-83
2022/05/12 08:32:09;;;;;;;224.18;115.97;;;;;;;20.19;47.13;93642.31;5004344;28;20038;-83
2022/05/12 08:34:34;;;;;;;222.85;118.05;;;;;;;20.16;47.54;93638.59;5004881;28;20544;-83
2022/05/12 08:37:00;;;;;;;213.70;112.55;;;;;;;20.20;47.35;93636.28;4991018;28;20133;-83
2022/05/12 08:39:25;;;;;;;210.65;105.05;;;;;;;20.24;47.25;93654.47;4982096;28;20060;-83
2022/05/12 08:42:05;;;;;;;195.68;103.40;;;;;;;20.22;47.44;93648.75;4992603;28;20046;-86
2022/05/12 08:44:33;;;;;;;186.98;100.88;;;;;;;20.28;47.22;93646.69;4993499;28;20050;-87
2022/05/12 08:47:00;;;;;;;185.70;98.53;;;;;;;20.29;47.20;93657.16;4990430;28;20046;-86
2022/05/12 08:49:35;;;;;;;172.90;90.25;;;;;;;20.25;47.22;93653.97;4990949;28;20042;-84
2022/05/12 08:52:24;;;;;;;172.48;90.32;;;;;;;20.27;47.29;93656.94;4991546;28;20037;-83
2022/05/12 08:55:00;;;;;;;171.45;83.95;;;;;;;20.29;47.15;93662.66;5007287;28;20124;-83
2022/05/12 08:57:32;;;;;;;156.38;81.68;;;;;;;20.28;47.18;93663.91;4989188;28;20072;-84
2022/05/12 08:59:57;;;;;;;173.32;81.75;;;;;;;20.29;47.21;93659.19;4989066;28;20041;-84
2022/05/12 09:02:43;;;;;;;144.68;72.47;;;;;;;20.27;47.56;93662.44;4988967;28;20107;-83
2022/05/12 09:05:14;;;;;;;142.23;69.97;;;;;;;20.28;47.23;93663.91;5007835;28;20042;-85
2022/05/12 09:08:02;;;;;;;125.95;65.07;;;;;;;20.26;47.48;93669.19;5007611;28;20042;-84
2022/05/12 09:10:39;;;;;;;125.53;61.72;;;;;;;20.31;47.48;93667.63;4988040;28;20042;-85
2022/05/12 09:13:14;;;;;;;108.40;57.85;;;;;;;20.34;47.30;93674.84;4987119;28;20038;-84
2022/05/12 09:15:43;;;;;;;104.20;55.05;;;;;;;20.30;47.32;93680.63;4988840;28;20054;-84
2022/05/12 09:18:27;;;;;;;107.90;54.80;;;;;;;20.29;47.31;93681.88;4990429;28;20698;-84
2022/05/12 09:20:52;;;;;;;105.65;52.95;;;;;;;20.30;47.42;93671.63;4990563;28;20040;-84
2022/05/12 09:23:18;;;;;;;130.88;57.28;;;;;;;20.31;47.58;93678.63;4989534;28;20137;-84
2022/05/12 09:25:45;;;;;;;110.60;54.67;;;;;;;20.30;47.43;93685.38;5004710;28;20056;-89
2022/05/12 09:28:29;;;;;;;93.05;48.72;;;;;;;20.30;47.62;93675.13;5004660;28;20038;-84
2022/05/12 09:30:58;;;;;;;97.10;49.08;;;;;;;20.33;47.64;93681.59;5001972;28;20045;-83
2022/05/12 09:33:29;;;;;;;89.93;46.58;;;;;;;20.34;47.51;93683.81;4989723;28;20077;-84
2022/05/12 09:35:56;;;;;;;90.93;47.50;;;;;;;20.35;47.63;93670.84;4975156;28;20045;-81
2022/05/12 09:38:23;;;;;;;95.43;51.35;;;;;;;20.38;47.54;93683.53;4970846;28;20587;-81
2022/05/12 09:40:48;;;;;;;107.90;51.72;;;;;;;20.36;47.50;93688.78;4989494;28;20044;-81
2022/05/12 09:43:31;;;;;;;97.32;48.67;;;;;;;20.35;47.70;93682.53;4981363;28;20045;-82
2022/05/12 09:46:21;;;;;;;119.25;62.60;;;;;;;20.37;47.57;93698.53;5002441;28;20048;-80
2022/05/12 09:48:48;;;;;;;146.00;70.20;;;;;;;20.40;47.53;93698.25;4996662;28;20038;-81
2022/05/12 09:51:25;;;;;;;137.10;69.38;;;;;;;20.39;47.80;93682.28;4991529;28;20065;-80
2022/05/12 09:53:54;;;;;;;191.27;97.63;;;;;;;20.42;47.59;93684.00;5008341;28;20057;-82
2022/05/12 09:56:29;;;;;;;194.07;102.10;;;;;;;20.44;47.66;93686.97;4988581;28;20400;-83
2022/05/12 09:59:13;;;;;;;228.05;110.43;;;;;;;20.41;47.81;93693.50;4979121;28;20168;-87
2022/05/12 10:01:59;;;;;;;235.15;114.20;;;;;;;20.42;47.72;93681.25;5006960;28;20128;-84
2022/05/12 10:10:13;;;;;;;190.63;97.65;;;;;;;20.47;47.58;93696.94;4991946;28;20069;-84
2022/05/12 10:12:46;;;;;;;183.73;98.22;;;;;;;20.49;47.69;93689.66;4983479;28;20030;-87
2022/05/12 10:15:29;;;;;;;175.80;93.30;;;;;;;20.45;47.66;93707.69;4990014;28;20052;-84
2022/05/12 10:18:08;;;;;;;149.30;84.18;;;;;;;20.49;47.63;93697.91;4975262;28;20042;-84
2022/05/12 10:20:38;;;;;;;147.52;78.95;;;;;;;20.55;47.92;93694.34;5007068;28;20057;-83
2022/05/12 10:23:29;;;;;;;167.88;92.97;;;;;;;20.55;47.95;93686.09;4990395;28;20041;-84
2022/05/12 10:26:12;;;;;;;144.15;80.90;;;;;;;20.53;47.66;93692.13;5008553;28;20038;-83
2022/05/12 10:28:44;;;;;;;129.35;70.90;;;;;;;20.56;47.43;93691.09;5005398;28;20524;-83
2022/05/12 10:31:43;;;;;;;129.27;65.10;;;;;;;20.52;47.62;93693.38;5000860;28;20034;-83
2022/05/12 10:34:19;;;;;;;105.50;56.55;;;;;;;20.53;47.87;93698.34;4986867;28;20035;-84
2022/05/12 10:37:07;;;;;;;116.82;61.13;;;;;;;20.52;47.81;93693.38;5001938;28;20046;-84
2022/05/12 10:39:40;;;;;;;116.78;58.15;;;;;;;20.51;47.76;93697.38;4971338;28;20050;-83
2022/05/12 10:42:31;;;;;;;130.68;60.03;;;;;;;20.49;47.92;93706.13;5000115;28;20404;-83
2022/05/12 10:45:21;;;;;;;103.20;50.70;;;;;;;20.51;48.05;93695.38;4983125;28;20120;-86
2022/05/12 10:48:22;;;;;;;91.53;45.67;;;;;;;20.52;48.11;93690.63;4984875;28;20097;-85
2022/05/12 10:51:16;;;;;;;81.75;40.92;;;;;;;20.56;48.03;93688.34;4987652;28;20396;-88
2022/05/12 10:54:18;;;;;;;72.00;35.83;;;;;;;20.59;47.99;93690.03;4989030;28;20489;-84
2022/05/12 10:57:09;;;;;;;61.92;33.38;;;;;;;20.59;48.17;93695.50;4998498;28;20056;-84
2022/05/12 10:59:38;;;;;;;;;;;;;;;20.60;48.01;93686.03;4991766;28;20041;-86
2022/05/12 11:02:11;;;;;;;62.00;35.15;;;;;;;20.69;48.00;93687.66;5003501;28;19922;-86
2022/05/12 11:04:46;;;;;;;62.15;33.35;;;;;;;20.68;48.14;93691.69;4988820;28;20128;-83
2022/05/12 11:07:23;;;;;;;71.15;31.75;;;;;;;20.71;48.00;93701.63;4989557;28;20038;-84
2022/05/12 11:09:56;;;;;;;72.00;35.15;;;;;;;20.70;48.41;93692.66;5008240;28;20034;-85
2022/05/12 11:12:43;;;;;;;71.85;32.95;;;;;;;20.72;48.16;93684.63;5010842;28;20033;-93
2022/05/12 11:15:12;;;;;;;70.00;34.70;;;;;;;20.73;48.30;93693.63;5012736;28;20040;-83
2022/05/12 11:17:52;;;;;;;72.68;32.17;;;;;;;20.76;48.02;93684.34;4985122;28;20216;-84
2022/05/12 11:20:31;;;;;;;79.57;36.55;;;;;;;20.72;48.33;93689.38;4990635;28;20057;-84
2022/05/12 11:23:29;;;;;;;85.63;37.60;;;;;;;20.74;48.39;93676.63;5008405;28;20916;-86
2022/05/12 11:26:19;;;;;;;80.57;36.35;;;;;;;20.76;48.41;93684.34;4936075;28;20403;-84
2022/05/12 11:32:21;;;;;;;67.18;31.70;;;;;;;20.76;48.36;93674.09;4903964;29;20139;-84
2022/05/12 11:34:49;;;;;;;70.40;30.13;;;;;;;20.80;48.28;93671.75;4928593;28;20071;-84
2022/05/12 11:37:33;;;;;;;61.97;30.55;;;;;;;20.77;48.44;93674.84;4913388;29;20055;-84
2022/05/12 11:40:00;;;;;;;49.83;26.17;;;;;;;20.82;48.51;93674.75;4899936;29;20534;-83
2022/05/12 11:42:28;;;;;;;57.35;26.33;;;;;;;20.76;48.48;93671.34;4911578;29;20554;-84
2022/05/12 11:45:07;;;;;;;49.67;25.65;;;;;;;20.84;48.46;93668.72;4909889;29;20040;-83
2022/05/12 11:47:52;;;;;;;54.88;28.00;;;;;;;20.84;48.52;93666.72;4912835;29;20046;-87
2022/05/12 11:50:29;;;;;;;58.60;26.55;;;;;;;20.81;48.75;93670.50;4926576;29;20102;-85
2022/05/12 11:53:16;;;;;;;60.58;25.95;;;;;;;20.82;48.52;93660.25;4915651;29;20513;-84